Washington Boro, PA (17582)

2:33 PM EST on January 18, 2017 (GMT -0500)
Craley | | Change Station
Active Advisory: Small Craft Advisory

Elev 640 ft 39.95 °N, 76.50 °W | Updated 9 minutes ago

Overcast
Overcast
49.0 °F
Feels Like 49 °F
N
3.0
Wind Variable Wind from NNW
Gusts 8.0 mph

Today
High -- | Low -- °F
--% Chance of Precip.
Yesterday
High -- | Low -- °F
Precip. -- in
Pressure 29.94 in
Visibility 10.0 miles
Clouds Overcast 3100 ft
Windchill 49 °F
Dew Point 42 °F
Humidity 76%
Rainfall Not available.
Snow Depth Not available.
7:24 AM 5:08 PM
Waning Gibbous, 61% visible
SPECI KLNS 181907Z 32011KT 10SM OVC031 10/06 A2994 RMK AO2 T01000056
Pressure 29.94 in
Visibility 10.0 miles
Clouds Overcast 3100 ft
Windchill 49 °F
Dew Point 42 °F
Humidity 76%
Rainfall Not available.
Snow Depth Not available.
7:24 AM 5:08 PM
Waning Gibbous, 61% visible
SPECI KLNS 181907Z 32011KT 10SM OVC031 10/06 A2994 RMK AO2 T01000056

Get Your Daily Forecast Email!

Thanks for signing up!

Be on the lookout for a verification email in your inbox.

You'll start receiving the daily forecast at 8 AM.

×

10-Day Weather Forecast

Almanac

Astronomy

Jan. 18, 2017 Rise Set
Actual Time
Civil Twilight
Nautical Twilight
Astronomical Twilight
Moon
Length of Visible Light
Length of Day
Tomorrow will be .
, % of the Moon is Illuminated

Today's Extremes

State Highs State Lows

Community

WunderPhotos

Upload Photos

1,962,540 photos uploaded!

WunderBlog® & News

Nearby

Air Quality

  Air Quality AQ Index Pollutant
Not available.

Snow Depth

Station Depth Elevation

Earthquake Activity

City Distance Mag. Time & Date
Minimum magnitude displayed is 2.5.

Coastal Water Temperatures

Place Temperature

Stations

Nearby Weather Stations

Station Location Temp. Windchill Dew Point Humidity Wind Precip. Elev Updated Type
                   

Watches & Warnings

Small Craft Advisory
Issued: 12:26 PM EST Jan. 18, 2017 – National Weather Service

... Small Craft Advisory remains in effect until 8 PM EST this
evening...

* winds... 18 to 33 knots within the Small Craft Advisory.

Precautionary/preparedness actions...

A Small Craft Advisory means winds of 18 to 33 knots are imminent
or occurring. Boaters operating smaller vessels should avoid
navigating in these conditions.